sensor_id;sensor_type;location;lat;lon;timestamp;pressure;altitude;pressure_sealevel;temperature;humidity
20015;BME280;61787;42.022;23.078;2023-03-20T00:00:26;97156.22;;;6.37;67.49
20015;BME280;61787;42.022;23.078;2023-03-20T00:01:30;97160.56;;;6.33;66.73
20015;BME280;61787;42.022;23.078;2023-03-20T00:02:32;97149.13;;;6.33;66.98
20015;BME280;61787;42.022;23.078;2023-03-20T00:03:34;97158.09;;;6.37;67.43
20015;BME280;61787;42.022;23.078;2023-03-20T00:04:35;97151.75;;;6.47;66.26
20015;BME280;61787;42.022;23.078;2023-03-20T00:05:38;97151.06;;;6.55;66.55
20015;BME280;61787;42.022;23.078;2023-03-20T00:06:40;97159.84;;;6.55;66.83
20015;BME280;61787;42.022;23.078;2023-03-20T00:07:41;97148.88;;;6.57;66.20
20015;BME280;61787;42.022;23.078;2023-03-20T00:08:45;97150.00;;;6.56;66.98
20015;BME280;61787;42.022;23.078;2023-03-20T00:09:47;97147.69;;;6.63;66.70
20015;BME280;61787;42.022;23.078;2023-03-20T00:10:49;97149.66;;;6.71;66.22
20015;BME280;61787;42.022;23.078;2023-03-20T00:11:52;97151.78;;;6.82;65.87
20015;BME280;61787;42.022;23.078;2023-03-20T00:12:56;97143.56;;;6.93;65.54
20015;BME280;61787;42.022;23.078;2023-03-20T00:14:09;97150.25;;;7.04;64.85
20015;BME280;61787;42.022;23.078;2023-03-20T00:16:27;97143.44;;;7.11;64.14
20015;BME280;61787;42.022;23.078;2023-03-20T00:17:30;97150.53;;;7.16;64.41
20015;BME280;61787;42.022;23.078;2023-03-20T00:18:32;97139.88;;;7.16;63.88
20015;BME280;61787;42.022;23.078;2023-03-20T00:19:33;97137.69;;;7.18;63.64
20015;BME280;61787;42.022;23.078;2023-03-20T00:20:35;97141.00;;;7.23;62.88
20015;BME280;61787;42.022;23.078;2023-03-20T00:21:37;97139.22;;;7.33;62.82
20015;BME280;61787;42.022;23.078;2023-03-20T00:22:39;97136.41;;;7.38;62.25
20015;BME280;61787;42.022;23.078;2023-03-20T00:23:40;97138.16;;;7.42;62.02
20015;BME280;61787;42.022;23.078;2023-03-20T00:24:42;97136.75;;;7.45;62.04
20015;BME280;61787;42.022;23.078;2023-03-20T00:25:44;97138.34;;;7.46;61.86
20015;BME280;61787;42.022;23.078;2023-03-20T00:26:48;97130.03;;;7.47;61.64
20015;BME280;61787;42.022;23.078;2023-03-20T00:27:50;97132.41;;;7.49;61.80
20015;BME280;61787;42.022;23.078;2023-03-20T00:28:52;97132.88;;;7.51;61.54
20015;BME280;61787;42.022;23.078;2023-03-20T00:29:54;97136.34;;;7.51;61.30
20015;BME280;61787;42.022;23.078;2023-03-20T00:30:56;97136.03;;;7.53;61.01
20015;BME280;61787;42.022;23.078;2023-03-20T00:31:58;97138.38;;;7.54;61.07
20015;BME280;61787;42.022;23.078;2023-03-20T00:32:59;97140.28;;;7.54;60.98
20015;BME280;61787;42.022;23.078;2023-03-20T00:34:03;97134.34;;;7.57;60.60
20015;BME280;61787;42.022;23.078;2023-03-20T00:35:24;97135.41;;;7.56;60.24
20015;BME280;61787;42.022;23.078;2023-03-20T00:36:27;97135.72;;;7.54;60.25
20015;BME280;61787;42.022;23.078;2023-03-20T00:37:28;97136.16;;;7.48;60.24
20015;BME280;61787;42.022;23.078;2023-03-20T00:38:30;97134.59;;;7.47;60.28
20015;BME280;61787;42.022;23.078;2023-03-20T00:39:32;97132.00;;;7.33;60.82
20015;BME280;61787;42.022;23.078;2023-03-20T00:40:34;97139.06;;;7.15;61.44
20015;BME280;61787;42.022;23.078;2023-03-20T00:43:16;97141.34;;;6.86;62.90
20015;BME280;61787;42.022;23.078;2023-03-20T00:45:33;97129.38;;;6.61;63.43
20015;BME280;61787;42.022;23.078;2023-03-20T00:46:37;97126.53;;;6.44;63.52
20015;BME280;61787;42.022;23.078;2023-03-20T00:47:39;97128.69;;;6.28;64.94
20015;BME280;61787;42.022;23.078;2023-03-20T00:48:42;97123.69;;;6.13;66.06
20015;BME280;61787;42.022;23.078;2023-03-20T00:49:46;97126.13;;;5.96;66.60
20015;BME280;61787;42.022;23.078;2023-03-20T00:50:48;97128.22;;;5.99;66.61
20015;BME280;61787;42.022;23.078;2023-03-20T00:51:49;97118.56;;;6.03;65.77
20015;BME280;61787;42.022;23.078;2023-03-20T00:52:51;97123.69;;;5.99;66.65
20015;BME280;61787;42.022;23.078;2023-03-20T00:53:53;97121.41;;;5.93;66.98
20015;BME280;61787;42.022;23.078;2023-03-20T00:54:55;97118.84;;;5.88;66.72
20015;BME280;61787;42.022;23.078;2023-03-20T00:55:56;97111.41;;;5.85;67.78
20015;BME280;61787;42.022;23.078;2023-03-20T00:57:32;97116.97;;;5.88;67.42
20015;BME280;61787;42.022;23.078;2023-03-20T00:58:39;97123.34;;;5.74;68.05
20015;BME280;61787;42.022;23.078;2023-03-20T00:59:49;97123.44;;;5.69;68.43
20015;BME280;61787;42.022;23.078;2023-03-20T01:00:52;97120.69;;;5.74;67.14
20015;BME280;61787;42.022;23.078;2023-03-20T01:01:54;97115.16;;;5.84;67.90
20015;BME280;61787;42.022;23.078;2023-03-20T01:02:57;97112.97;;;5.86;67.72
20015;BME280;61787;42.022;23.078;2023-03-20T01:03:59;97113.41;;;5.79;68.04
20015;BME280;61787;42.022;23.078;2023-03-20T01:05:01;97118.47;;;5.62;67.91
20015;BME280;61787;42.022;23.078;2023-03-20T01:06:04;97117.28;;;5.54;68.79
20015;BME280;61787;42.022;23.078;2023-03-20T01:07:08;97113.16;;;5.48;69.38
20015;BME280;61787;42.022;23.078;2023-03-20T01:08:16;97112.84;;;5.50;69.26
20015;BME280;61787;42.022;23.078;2023-03-20T01:09:18;97110.56;;;5.43;69.06
20015;BME280;61787;42.022;23.078;2023-03-20T01:10:19;97114.97;;;5.34;69.89
20015;BME280;61787;42.022;23.078;2023-03-20T01:11:22;97106.97;;;5.34;69.92
20015;BME280;61787;42.022;23.078;2023-03-20T01:12:24;97110.75;;;5.33;70.30
20015;BME280;61787;42.022;23.078;2023-03-20T01:13:28;97113.88;;;5.35;69.53
20015;BME280;61787;42.022;23.078;2023-03-20T01:14:30;97110.06;;;5.41;69.57
20015;BME280;61787;42.022;23.078;2023-03-20T01:15:32;97109.97;;;5.46;69.24
20015;BME280;61787;42.022;23.078;2023-03-20T01:16:34;97109.97;;;5.46;69.43
20015;BME280;61787;42.022;23.078;2023-03-20T01:17:36;97109.00;;;5.42;69.04
20015;BME280;61787;42.022;23.078;2023-03-20T01:18:38;97107.41;;;5.41;69.96
20015;BME280;61787;42.022;23.078;2023-03-20T01:19:39;97117.63;;;5.34;69.92
20015;BME280;61787;42.022;23.078;2023-03-20T01:20:42;97106.50;;;5.32;69.16
20015;BME280;61787;42.022;23.078;2023-03-20T01:21:43;97113.47;;;5.28;69.46
20015;BME280;61787;42.022;23.078;2023-03-20T01:22:45;97111.03;;;5.13;70.80
20015;BME280;61787;42.022;23.078;2023-03-20T01:23:48;97109.06;;;5.05;71.01
20015;BME280;61787;42.022;23.078;2023-03-20T01:24:50;97110.63;;;5.06;70.56
20015;BME280;61787;42.022;23.078;2023-03-20T01:25:52;97111.63;;;5.10;70.77
20015;BME280;61787;42.022;23.078;2023-03-20T01:26:54;97110.47;;;5.16;70.26
20015;BME280;61787;42.022;23.078;2023-03-20T01:27:55;97114.63;;;5.22;70.86
20015;BME280;61787;42.022;23.078;2023-03-20T01:28:58;97119.47;;;5.34;70.27
20015;BME280;61787;42.022;23.078;2023-03-20T01:30:00;97109.56;;;5.39;69.99
20015;BME280;61787;42.022;23.078;2023-03-20T01:31:01;97112.88;;;5.31;70.13
20015;BME280;61787;42.022;23.078;2023-03-20T01:32:09;97113.06;;;5.21;71.09
20015;BME280;61787;42.022;23.078;2023-03-20T01:33:18;97112.78;;;5.23;71.35
20015;BME280;61787;42.022;23.078;2023-03-20T01:34:20;97108.53;;;5.22;70.90
20015;BME280;61787;42.022;23.078;2023-03-20T01:35:24;97114.03;;;5.25;71.18
20015;BME280;61787;42.022;23.078;2023-03-20T01:36:26;97110.47;;;5.16;70.80
20015;BME280;61787;42.022;23.078;2023-03-20T01:37:28;97111.84;;;5.13;71.58
20015;BME280;61787;42.022;23.078;2023-03-20T01:38:29;97117.16;;;5.13;71.94
20015;BME280;61787;42.022;23.078;2023-03-20T01:39:34;97108.47;;;5.08;71.32
20015;BME280;61787;42.022;23.078;2023-03-20T01:40:43;97116.66;;;5.11;71.84
20015;BME280;61787;42.022;23.078;2023-03-20T01:41:50;97119.00;;;5.13;71.38
20015;BME280;61787;42.022;23.078;2023-03-20T01:42:53;97112.53;;;5.19;72.23
20015;BME280;61787;42.022;23.078;2023-03-20T01:43:54;97112.97;;;5.26;72.01
20015;BME280;61787;42.022;23.078;2023-03-20T01:44:56;97115.00;;;5.15;71.82
20015;BME280;61787;42.022;23.078;2023-03-20T01:47:23;97116.25;;;4.86;72.51
20015;BME280;61787;42.022;23.078;2023-03-20T01:48:30;97112.44;;;4.73;73.67
20015;BME280;61787;42.022;23.078;2023-03-20T01:51:28;97126.13;;;4.43;75.55
20015;BME280;61787;42.022;23.078;2023-03-20T01:52:29;97126.53;;;4.31;76.01
20015;BME280;61787;42.022;23.078;2023-03-20T01:53:31;97123.19;;;4.25;76.04
20015;BME280;61787;42.022;23.078;2023-03-20T01:54:37;97126.97;;;4.19;76.79
20015;BME280;61787;42.022;23.078;2023-03-20T01:55:40;97126.34;;;4.04;77.03
20015;BME280;61787;42.022;23.078;2023-03-20T01:56:58;97132.25;;;3.96;77.89
20015;BME280;61787;42.022;23.078;2023-03-20T01:58:03;97129.22;;;3.83;77.99
20015;BME280;61787;42.022;23.078;2023-03-20T01:59:15;97132.94;;;3.82;78.83
20015;BME280;61787;42.022;23.078;2023-03-20T02:00:18;97130.31;;;3.82;79.12
20015;BME280;61787;42.022;23.078;2023-03-20T02:01:20;97128.22;;;3.79;79.86
20015;BME280;61787;42.022;23.078;2023-03-20T02:02:24;97130.75;;;3.90;79.00
20015;BME280;61787;42.022;23.078;2023-03-20T02:03:27;97129.34;;;3.97;78.10
20015;BME280;61787;42.022;23.078;2023-03-20T02:04:33;97132.16;;;4.06;78.13
20015;BME280;61787;42.022;23.078;2023-03-20T02:05:37;97129.38;;;4.16;77.90
20015;BME280;61787;42.022;23.078;2023-03-20T02:06:39;97136.22;;;4.22;76.88
20015;BME280;61787;42.022;23.078;2023-03-20T02:07:45;97132.22;;;4.24;76.94
20015;BME280;61787;42.022;23.078;2023-03-20T02:08:51;97136.03;;;4.37;76.74
20015;BME280;61787;42.022;23.078;2023-03-20T02:09:53;97139.13;;;4.44;77.12
20015;BME280;61787;42.022;23.078;2023-03-20T02:10:56;97139.66;;;4.46;76.42
20015;BME280;61787;42.022;23.078;2023-03-20T02:11:59;97142.41;;;4.36;76.81
20015;BME280;61787;42.022;23.078;2023-03-20T02:13:02;97142.34;;;4.41;75.93
20015;BME280;61787;42.022;23.078;2023-03-20T02:14:05;97142.53;;;4.50;76.42
20015;BME280;61787;42.022;23.078;2023-03-20T02:15:09;97146.31;;;4.62;75.34
20015;BME280;61787;42.022;23.078;2023-03-20T02:16:13;97143.53;;;4.72;75.77
20015;BME280;61787;42.022;23.078;2023-03-20T02:17:15;97143.91;;;4.85;74.31
20015;BME280;61787;42.022;23.078;2023-03-20T02:18:17;97144.28;;;4.97;74.15
20015;BME280;61787;42.022;23.078;2023-03-20T02:23:54;97139.41;;;5.36;71.66
20015;BME280;61787;42.022;23.078;2023-03-20T02:28:09;97132.75;;;5.20;72.31
20015;BME280;61787;42.022;23.078;2023-03-20T02:31:14;97144.63;;;5.41;70.97
20015;BME280;61787;42.022;23.078;2023-03-20T02:38:47;97150.03;;;5.82;69.20
20015;BME280;61787;42.022;23.078;2023-03-20T02:41:10;97138.06;;;5.98;67.69
20015;BME280;61787;42.022;23.078;2023-03-20T02:43:50;97139.94;;;5.98;68.40
20015;BME280;61787;42.022;23.078;2023-03-20T02:47:48;97142.00;;;6.01;67.56
20015;BME280;61787;42.022;23.078;2023-03-20T02:48:55;97139.84;;;6.03;67.76
20015;BME280;61787;42.022;23.078;2023-03-20T02:53:41;97140.81;;;6.07;67.16
20015;BME280;61787;42.022;23.078;2023-03-20T02:58:30;97144.75;;;5.96;66.98
20015;BME280;61787;42.022;23.078;2023-03-20T02:59:47;97150.69;;;5.93;67.60
20015;BME280;61787;42.022;23.078;2023-03-20T03:00:59;97149.09;;;5.92;67.59
20015;BME280;61787;42.022;23.078;2023-03-20T03:02:08;97151.84;;;5.87;67.81
20015;BME280;61787;42.022;23.078;2023-03-20T03:03:24;97152.78;;;5.64;68.06
20015;BME280;61787;42.022;23.078;2023-03-20T03:04:33;97156.09;;;5.55;68.52
20015;BME280;61787;42.022;23.078;2023-03-20T03:05:44;97159.59;;;5.37;69.85
20015;BME280;61787;42.022;23.078;2023-03-20T03:06:50;97153.66;;;5.08;70.75
20015;BME280;61787;42.022;23.078;2023-03-20T03:07:57;97152.94;;;4.84;72.72
20015;BME280;61787;42.022;23.078;2023-03-20T03:10:19;97154.50;;;4.47;73.99
20015;BME280;61787;42.022;23.078;2023-03-20T03:11:22;97154.13;;;4.35;75.61
20015;BME280;61787;42.022;23.078;2023-03-20T03:12:29;97152.09;;;4.27;76.20
20015;BME280;61787;42.022;23.078;2023-03-20T03:13:36;97147.19;;;4.15;76.64
20015;BME280;61787;42.022;23.078;2023-03-20T03:14:42;97149.72;;;4.02;76.84
20015;BME280;61787;42.022;23.078;2023-03-20T03:15:48;97154.59;;;3.95;77.51
20015;BME280;61787;42.022;23.078;2023-03-20T03:16:53;97146.44;;;3.86;78.06
20015;BME280;61787;42.022;23.078;2023-03-20T03:17:57;97147.81;;;3.83;78.03
20015;BME280;61787;42.022;23.078;2023-03-20T03:19:20;97154.75;;;3.79;78.62
20015;BME280;61787;42.022;23.078;2023-03-20T03:20:28;97145.75;;;3.75;78.56
20015;BME280;61787;42.022;23.078;2023-03-20T03:21:31;97152.69;;;3.71;79.26
20015;BME280;61787;42.022;23.078;2023-03-20T03:22:34;97158.09;;;3.61;80.05
20015;BME280;61787;42.022;23.078;2023-03-20T03:23:42;97147.44;;;3.66;80.02
20015;BME280;61787;42.022;23.078;2023-03-20T03:24:49;97145.34;;;3.63;80.84
20015;BME280;61787;42.022;23.078;2023-03-20T03:25:52;97143.28;;;3.55;80.24
20015;BME280;61787;42.022;23.078;2023-03-20T03:26:57;97136.75;;;3.48;81.26
20015;BME280;61787;42.022;23.078;2023-03-20T03:29:22;97132.72;;;3.50;81.34
20015;BME280;61787;42.022;23.078;2023-03-20T03:30:30;97147.03;;;3.49;81.05
20015;BME280;61787;42.022;23.078;2023-03-20T03:31:33;97139.63;;;3.51;81.17
20015;BME280;61787;42.022;23.078;2023-03-20T03:32:45;97149.66;;;3.54;81.58
20015;BME280;61787;42.022;23.078;2023-03-20T03:33:51;97146.41;;;3.62;80.71
20015;BME280;61787;42.022;23.078;2023-03-20T03:34:54;97147.91;;;3.73;80.44
20015;BME280;61787;42.022;23.078;2023-03-20T03:36:12;97144.03;;;3.90;79.55
20015;BME280;61787;42.022;23.078;2023-03-20T03:39:08;97135.47;;;4.16;78.84
20015;BME280;61787;42.022;23.078;2023-03-20T03:40:34;97150.94;;;4.33;77.61
20015;BME280;61787;42.022;23.078;2023-03-20T03:41:51;97141.22;;;4.47;77.25
20015;BME280;61787;42.022;23.078;2023-03-20T03:43:02;97142.38;;;4.60;75.37
20015;BME280;61787;42.022;23.078;2023-03-20T03:45:47;97144.97;;;4.84;74.14
20015;BME280;61787;42.022;23.078;2023-03-20T03:46:55;97134.28;;;4.89;73.72
20015;BME280;61787;42.022;23.078;2023-03-20T03:48:06;97143.75;;;4.95;73.30
20015;BME280;61787;42.022;23.078;2023-03-20T03:49:16;97137.56;;;4.99;73.52
20015;BME280;61787;42.022;23.078;2023-03-20T03:50:24;97138.09;;;5.01;72.89
20015;BME280;61787;42.022;23.078;2023-03-20T03:51:31;97136.16;;;5.07;72.38
20015;BME280;61787;42.022;23.078;2023-03-20T03:52:33;97132.09;;;5.09;72.26
20015;BME280;61787;42.022;23.078;2023-03-20T03:53:39;97133.19;;;5.08;72.25
20015;BME280;61787;42.022;23.078;2023-03-20T03:54:47;97136.16;;;5.07;72.07
20015;BME280;61787;42.022;23.078;2023-03-20T03:55:53;97135.13;;;5.03;72.21
20015;BME280;61787;42.022;23.078;2023-03-20T03:56:56;97137.00;;;5.02;72.07
20015;BME280;61787;42.022;23.078;2023-03-20T03:58:03;97138.56;;;5.03;71.50
20015;BME280;61787;42.022;23.078;2023-03-20T03:59:17;97136.94;;;5.07;72.18
20015;BME280;61787;42.022;23.078;2023-03-20T04:00:22;97142.38;;;5.16;71.37
20015;BME280;61787;42.022;23.078;2023-03-20T04:01:26;97139.63;;;5.21;71.06
20015;BME280;61787;42.022;23.078;2023-03-20T04:02:29;97135.59;;;5.24;71.06
20015;BME280;61787;42.022;23.078;2023-03-20T04:03:35;97140.84;;;5.29;71.09
20015;BME280;61787;42.022;23.078;2023-03-20T04:04:41;97142.66;;;5.33;71.55
20015;BME280;61787;42.022;23.078;2023-03-20T04:05:45;97142.06;;;5.36;71.43
20015;BME280;61787;42.022;23.078;2023-03-20T04:06:47;97139.91;;;5.38;71.52
20015;BME280;61787;42.022;23.078;2023-03-20T04:07:53;97135.06;;;5.40;70.19
20015;BME280;61787;42.022;23.078;2023-03-20T04:08:55;97138.25;;;5.42;70.99
20015;BME280;61787;42.022;23.078;2023-03-20T04:09:57;97134.19;;;5.45;70.13
20015;BME280;61787;42.022;23.078;2023-03-20T04:10:58;97134.91;;;5.50;70.15
20015;BME280;61787;42.022;23.078;2023-03-20T04:12:00;97137.56;;;5.50;69.80
20015;BME280;61787;42.022;23.078;2023-03-20T04:13:02;97133.63;;;5.48;69.91
20015;BME280;61787;42.022;23.078;2023-03-20T04:14:04;97128.09;;;5.44;69.81
20015;BME280;61787;42.022;23.078;2023-03-20T04:15:06;97136.06;;;5.44;70.25
20015;BME280;61787;42.022;23.078;2023-03-20T04:16:12;97128.09;;;5.44;70.17
20015;BME280;61787;42.022;23.078;2023-03-20T04:17:17;97132.84;;;5.47;70.13
20015;BME280;61787;42.022;23.078;2023-03-20T04:18:19;97131.25;;;5.46;70.02
20015;BME280;61787;42.022;23.078;2023-03-20T04:19:20;97131.41;;;5.36;70.10
20015;BME280;61787;42.022;23.078;2023-03-20T04:20:22;97131.59;;;5.26;70.46
20015;BME280;61787;42.022;23.078;2023-03-20T04:21:23;97130.81;;;4.88;71.37
20015;BME280;61787;42.022;23.078;2023-03-20T04:22:25;97132.03;;;4.77;72.38
20015;BME280;61787;42.022;23.078;2023-03-20T04:23:27;97132.91;;;4.72;72.85
20015;BME280;61787;42.022;23.078;2023-03-20T04:24:29;97134.06;;;4.66;73.86
20015;BME280;61787;42.022;23.078;2023-03-20T04:25:30;97135.78;;;4.57;73.71
20015;BME280;61787;42.022;23.078;2023-03-20T04:26:32;97129.38;;;4.58;74.33
20015;BME280;61787;42.022;23.078;2023-03-20T04:27:34;97133.63;;;4.59;73.35
20015;BME280;61787;42.022;23.078;2023-03-20T04:28:36;97134.63;;;4.63;74.31
20015;BME280;61787;42.022;23.078;2023-03-20T04:29:38;97140.16;;;4.67;74.46
20015;BME280;61787;42.022;23.078;2023-03-20T04:30:39;97136.34;;;4.73;74.02
20015;BME280;61787;42.022;23.078;2023-03-20T04:31:41;97142.38;;;4.79;73.91
20015;BME280;61787;42.022;23.078;2023-03-20T04:32:43;97141.16;;;4.90;73.40
20015;BME280;61787;42.022;23.078;2023-03-20T04:33:44;97144.75;;;4.99;72.44
20015;BME280;61787;42.022;23.078;2023-03-20T04:34:46;97150.22;;;5.07;72.61
20015;BME280;61787;42.022;23.078;2023-03-20T04:35:47;97145.91;;;5.11;71.49
20015;BME280;61787;42.022;23.078;2023-03-20T04:36:49;97140.22;;;5.18;70.72
20015;BME280;61787;42.022;23.078;2023-03-20T04:37:51;97147.03;;;5.24;70.63
20015;BME280;61787;42.022;23.078;2023-03-20T04:38:52;97146.47;;;5.27;70.29
20015;BME280;61787;42.022;23.078;2023-03-20T04:39:57;97141.06;;;5.32;70.35
20015;BME280;61787;42.022;23.078;2023-03-20T04:40:59;97148.44;;;5.35;70.33
20015;BME280;61787;42.022;23.078;2023-03-20T04:42:01;97142.56;;;5.38;70.73
20015;BME280;61787;42.022;23.078;2023-03-20T04:43:03;97148.38;;;5.40;69.60
20015;BME280;61787;42.022;23.078;2023-03-20T04:44:05;97150.47;;;5.43;69.75
20015;BME280;61787;42.022;23.078;2023-03-20T04:45:07;97148.78;;;5.47;69.81
20015;BME280;61787;42.022;23.078;2023-03-20T04:46:09;97155.09;;;5.51;69.41
20015;BME280;61787;42.022;23.078;2023-03-20T04:47:11;97141.72;;;5.56;69.19
20015;BME280;61787;42.022;23.078;2023-03-20T04:48:13;97146.44;;;5.59;69.37
20015;BME280;61787;42.022;23.078;2023-03-20T04:49:14;97143.50;;;5.61;69.42
20015;BME280;61787;42.022;23.078;2023-03-20T04:50:16;97150.13;;;5.64;68.63
20015;BME280;61787;42.022;23.078;2023-03-20T04:51:18;97150.59;;;5.66;68.61
20015;BME280;61787;42.022;23.078;2023-03-20T04:52:19;97149.69;;;5.56;68.27
20015;BME280;61787;42.022;23.078;2023-03-20T04:53:21;97145.34;;;5.47;69.35
20015;BME280;61787;42.022;23.078;2023-03-20T04:54:23;97148.16;;;5.37;68.74
20015;BME280;61787;42.022;23.078;2023-03-20T04:55:25;97146.03;;;5.20;69.79
20015;BME280;61787;42.022;23.078;2023-03-20T04:56:27;97152.09;;;5.07;69.84
20015;BME280;61787;42.022;23.078;2023-03-20T04:57:28;97148.00;;;4.96;70.85
20015;BME280;61787;42.022;23.078;2023-03-20T04:58:32;97157.69;;;4.87;71.33
20015;BME280;61787;42.022;23.078;2023-03-20T04:59:36;97150.28;;;4.84;71.46
20015;BME280;61787;42.022;23.078;2023-03-20T05:00:37;97151.94;;;4.80;72.04
20015;BME280;61787;42.022;23.078;2023-03-20T05:01:39;97160.63;;;4.66;72.11
20015;BME280;61787;42.022;23.078;2023-03-20T05:02:41;97160.69;;;4.61;72.72
20015;BME280;61787;42.022;23.078;2023-03-20T05:03:43;97158.59;;;4.58;72.28
20015;BME280;61787;42.022;23.078;2023-03-20T05:04:45;97160.19;;;4.59;73.57
20015;BME280;61787;42.022;23.078;2023-03-20T05:05:46;97156.47;;;4.60;73.11
20015;BME280;61787;42.022;23.078;2023-03-20T05:06:48;97166.00;;;4.61;73.04
20015;BME280;61787;42.022;23.078;2023-03-20T05:07:50;97170.28;;;4.57;73.39
20015;BME280;61787;42.022;23.078;2023-03-20T05:08:52;97157.81;;;4.58;73.21
20015;BME280;61787;42.022;23.078;2023-03-20T05:09:53;97159.19;;;4.55;73.48
20015;BME280;61787;42.022;23.078;2023-03-20T05:10:55;97155.53;;;4.51;74.16
20015;BME280;61787;42.022;23.078;2023-03-20T05:11:57;97161.91;;;4.50;73.72
20015;BME280;61787;42.022;23.078;2023-03-20T05:12:58;97165.22;;;4.37;74.46
20015;BME280;61787;42.022;23.078;2023-03-20T05:14:00;97164.16;;;4.38;74.87
20015;BME280;61787;42.022;23.078;2023-03-20T05:15:02;97167.34;;;4.40;74.63
20015;BME280;61787;42.022;23.078;2023-03-20T05:16:04;97168.34;;;4.44;75.04
20015;BME280;61787;42.022;23.078;2023-03-20T05:17:06;97168.06;;;4.46;74.50
20015;BME280;61787;42.022;23.078;2023-03-20T05:18:07;97170.41;;;4.47;74.82
20015;BME280;61787;42.022;23.078;2023-03-20T05:19:10;97167.22;;;4.50;74.65
20015;BME280;61787;42.022;23.078;2023-03-20T05:20:11;97173.31;;;4.51;75.80
20015;BME280;61787;42.022;23.078;2023-03-20T05:21:13;97172.72;;;4.54;76.02
20015;BME280;61787;42.022;23.078;2023-03-20T05:22:16;97169.00;;;4.55;76.04
20015;BME280;61787;42.022;23.078;2023-03-20T05:23:18;97170.59;;;4.56;75.66
20015;BME280;61787;42.022;23.078;2023-03-20T05:24:19;97170.34;;;4.52;75.87
20015;BME280;61787;42.022;23.078;2023-03-20T05:25:21;97160.25;;;4.54;75.60
20015;BME280;61787;42.022;23.078;2023-03-20T05:26:23;97167.94;;;4.56;75.65
20015;BME280;61787;42.022;23.078;2023-03-20T05:27:24;97166.63;;;4.53;75.34
20015;BME280;61787;42.022;23.078;2023-03-20T05:28:26;97174.09;;;4.51;75.92
20015;BME280;61787;42.022;23.078;2023-03-20T05:29:28;97166.97;;;4.47;75.98
20015;BME280;61787;42.022;23.078;2023-03-20T05:30:30;97169.63;;;4.47;75.45
20015;BME280;61787;42.022;23.078;2023-03-20T05:31:32;97170.16;;;4.49;75.87
20015;BME280;61787;42.022;23.078;2023-03-20T05:32:34;97161.91;;;4.50;76.89
20015;BME280;61787;42.022;23.078;2023-03-20T05:33:37;97168.34;;;4.44;77.10
20015;BME280;61787;42.022;23.078;2023-03-20T05:34:39;97160.44;;;4.39;77.31
20015;BME280;61787;42.022;23.078;2023-03-20T05:35:41;97166.53;;;4.40;78.15
20015;BME280;61787;42.022;23.078;2023-03-20T05:36:42;97165.16;;;4.42;77.83
20015;BME280;61787;42.022;23.078;2023-03-20T05:37:44;97162.44;;;4.47;77.86
20015;BME280;61787;42.022;23.078;2023-03-20T05:38:46;97173.53;;;4.54;78.29
20015;BME280;61787;42.022;23.078;2023-03-20T05:39:47;97171.81;;;4.63;78.37
20015;BME280;61787;42.022;23.078;2023-03-20T05:40:49;97173.84;;;4.71;77.63
20015;BME280;61787;42.022;23.078;2023-03-20T05:41:50;97171.13;;;4.77;78.00
20015;BME280;61787;42.022;23.078;2023-03-20T05:42:52;97174.72;;;4.86;77.58
20015;BME280;61787;42.022;23.078;2023-03-20T05:43:53;97166.66;;;4.91;77.35
20015;BME280;61787;42.022;23.078;2023-03-20T05:44:55;97170.03;;;4.96;76.65
20015;BME280;61787;42.022;23.078;2023-03-20T05:45:57;97169.09;;;5.06;76.51
20015;BME280;61787;42.022;23.078;2023-03-20T05:46:59;97172.25;;;5.08;75.92
20015;BME280;61787;42.022;23.078;2023-03-20T05:48:00;97179.16;;;5.09;75.45
20015;BME280;61787;42.022;23.078;2023-03-20T05:49:02;97181.53;;;5.10;76.17
20015;BME280;61787;42.022;23.078;2023-03-20T05:50:04;97175.34;;;5.15;75.27
20015;BME280;61787;42.022;23.078;2023-03-20T05:51:06;97173.19;;;5.17;75.91
20015;BME280;61787;42.022;23.078;2023-03-20T05:52:07;97173.69;;;5.19;75.98
20015;BME280;61787;42.022;23.078;2023-03-20T05:53:09;97183.44;;;5.24;75.47
20015;BME280;61787;42.022;23.078;2023-03-20T05:54:10;97177.84;;;5.25;76.58
20015;BME280;61787;42.022;23.078;2023-03-20T05:55:12;97184.00;;;5.39;75.43
20015;BME280;61787;42.022;23.078;2023-03-20T05:56:14;97172.56;;;5.39;74.90
20015;BME280;61787;42.022;23.078;2023-03-20T05:57:16;97175.78;;;5.54;81.04
20015;BME280;61787;42.022;23.078;2023-03-20T05:58:18;97180.03;;;5.88;84.22
20015;BME280;61787;42.022;23.078;2023-03-20T05:59:19;97171.53;;;5.86;77.09
20015;BME280;61787;42.022;23.078;2023-03-20T06:00:21;97179.50;;;5.86;75.74
20015;BME280;61787;42.022;23.078;2023-03-20T06:01:23;97170.72;;;5.85;74.44
20015;BME280;61787;42.022;23.078;2023-03-20T06:02:25;97172.53;;;5.90;77.75
20015;BME280;61787;42.022;23.078;2023-03-20T06:03:27;97171.28;;;6.01;74.65
20015;BME280;61787;42.022;23.078;2023-03-20T06:04:29;97172.78;;;6.07;73.54
20015;BME280;61787;42.022;23.078;2023-03-20T06:05:31;97167.63;;;6.11;73.52
20015;BME280;61787;42.022;23.078;2023-03-20T06:06:33;97167.94;;;6.09;72.63
20015;BME280;61787;42.022;23.078;2023-03-20T06:07:38;97169.03;;;6.08;73.33
20015;BME280;61787;42.022;23.078;2023-03-20T06:08:40;97167.34;;;6.12;73.84
20015;BME280;61787;42.022;23.078;2023-03-20T06:09:41;97168.81;;;5.91;72.97
20015;BME280;61787;42.022;23.078;2023-03-20T06:10:43;97168.75;;;5.64;74.82
20015;BME280;61787;42.022;23.078;2023-03-20T06:11:44;97165.53;;;5.48;75.13
20015;BME280;61787;42.022;23.078;2023-03-20T06:12:46;97168.06;;;5.39;74.91
20015;BME280;61787;42.022;23.078;2023-03-20T06:13:48;97162.16;;;5.42;75.88
20015;BME280;61787;42.022;23.078;2023-03-20T06:14:51;97159.81;;;5.54;76.08
20015;BME280;61787;42.022;23.078;2023-03-20T06:15:52;97167.94;;;5.63;75.41
20015;BME280;61787;42.022;23.078;2023-03-20T06:16:54;97164.97;;;5.65;74.43
20015;BME280;61787;42.022;23.078;2023-03-20T06:17:57;97169.22;;;5.66;74.62
20015;BME280;61787;42.022;23.078;2023-03-20T06:18:59;97165.41;;;5.72;74.32
20015;BME280;61787;42.022;23.078;2023-03-20T06:20:01;97163.63;;;5.81;74.59